Terminal Aerodrome Forecast
Issued by NWS

Home | Current Version | Previous Version | Text Only | Print | Product List | Glossary On
Versions: 1 2 3 4 5 6 7 8 9 10 11 12 13 14 15 16 17 18 19 20 21 22 23 24
000
FTUS43 KLSX 302300
TAFSUS
TAF
KSUS 302338Z 3100/3124 19005KT P6SM VCSH SCT050 BKN120
     FM310100 VRB04KT P6SM SCT120 BKN250
     FM311000 VRB03KT 3SM BR SCT015
     FM311400 22007KT P6SM SCT030=

USA.gov is the U.S. government's official web portal to all federal, state and local government web resources and services.